Terminal Aerodrome Forecast
Issued by NWS

Home | Current Version | Previous Version | Text Only | Print | Product List | Glossary On
Versions: 1 2 3 4 5 6 7 8 9 10 11 12 13 14 15 16 17
000
FTAK31 PAJN 301100
TAFAWG
TAF
PAWG 301128Z 3012/0112 14005KT P6SM VCSH BKN030 OVC050
     FM301500 14005KT 6SM -SHRA BKN025 OVC050
     FM302100 VRB05KT P6SM -SHRA BKN040 OVC060
     FM010200 26004KT P6SM -SHRA BKN050 OVC070
     FM011100 VRB05KT P6SM VCSH BKN050 BKN070
      AMD LTD TO CLD VIS AND WIND 3012/3015=

USA.gov is the U.S. government's official web portal to all federal, state and local government web resources and services.